Bega, Australia
Current Conditions -  °F | °C
As of 2:00 PM on Wednesday 26 Nov 2014 (Local Time) from YMER Reporting Station
Scattered Clouds Scattered Clouds  
Wind Chill: 68°   Ceiling: Unl
Heat Index: 68°   Visibility: 6mi
Dew Point: 55°   Wind: 13mph
Humidity: 64%   Direction: 130°SE
Pressure: 30.06"   Gusts: NA
Location:  36.67°S, 149.84°E
Report Text: YMER 260300Z AUTO 13011KT 9999 // SCT022 20/13 Q1018
Loading
Personal Weather Stations






























Interactive Weather Map New forecast layout! Learn more

10-Day Weather Forecast

Advertisements
Track Severe Weather on mobile